sensor_id;sensor_type;location;lat;lon;timestamp;P1;durP1;ratioP1;P2;durP2;ratioP2
49237;SDS011;35069;47.906;1.892;2022-10-16T06:01:55;14.10;;;6.78;;
49237;SDS011;35069;47.906;1.892;2022-10-16T06:04:21;12.63;;;6.43;;
49237;SDS011;35069;47.906;1.892;2022-10-16T06:06:47;16.95;;;6.88;;
49237;SDS011;35069;47.906;1.892;2022-10-16T06:09:15;10.88;;;6.78;;
49237;SDS011;35069;47.906;1.892;2022-10-16T06:11:43;10.82;;;6.40;;
49237;SDS011;35069;47.906;1.892;2022-10-16T06:14:09;11.57;;;6.47;;
49237;SDS011;35069;47.906;1.892;2022-10-16T06:16:35;17.80;;;7.05;;
49237;SDS011;35069;47.906;1.892;2022-10-16T06:19:02;14.20;;;6.60;;
49237;SDS011;35069;47.906;1.892;2022-10-16T06:21:31;13.77;;;6.60;;
49237;SDS011;35069;47.906;1.892;2022-10-16T06:23:57;13.52;;;6.60;;
49237;SDS011;35069;47.906;1.892;2022-10-16T06:26:24;10.52;;;6.18;;
49237;SDS011;35069;47.906;1.892;2022-10-16T06:28:51;15.88;;;6.38;;
49237;SDS011;35069;47.906;1.892;2022-10-16T06:31:19;10.32;;;5.38;;
49237;SDS011;35069;47.906;1.892;2022-10-16T06:33:45;14.20;;;6.05;;
49237;SDS011;35069;47.906;1.892;2022-10-16T06:36:15;11.48;;;6.13;;
49237;SDS011;35069;47.906;1.892;2022-10-16T06:38:42;18.05;;;6.20;;
49237;SDS011;35069;47.906;1.892;2022-10-16T06:41:12;11.68;;;5.70;;
49237;SDS011;35069;47.906;1.892;2022-10-16T06:43:39;14.73;;;6.95;;
49237;SDS011;35069;47.906;1.892;2022-10-16T06:46:06;7.30;;;5.35;;
49237;SDS011;35069;47.906;1.892;2022-10-16T06:48:32;8.77;;;5.75;;
49237;SDS011;35069;47.906;1.892;2022-10-16T06:51:03;12.68;;;6.30;;
49237;SDS011;35069;47.906;1.892;2022-10-16T06:53:37;12.82;;;5.90;;
49237;SDS011;35069;47.906;1.892;2022-10-16T06:56:12;9.63;;;6.03;;
49237;SDS011;35069;47.906;1.892;2022-10-16T06:58:40;8.65;;;5.40;;
49237;SDS011;35069;47.906;1.892;2022-10-16T07:01:06;11.60;;;5.60;;
49237;SDS011;35069;47.906;1.892;2022-10-16T07:03:32;11.88;;;6.45;;
49237;SDS011;35069;47.906;1.892;2022-10-16T07:06:01;7.63;;;5.53;;
49237;SDS011;35069;47.906;1.892;2022-10-16T07:08:27;15.55;;;5.80;;
49237;SDS011;35069;47.906;1.892;2022-10-16T07:10:59;10.27;;;5.95;;
49237;SDS011;35069;47.906;1.892;2022-10-16T07:13:26;16.38;;;7.22;;
49237;SDS011;35069;47.906;1.892;2022-10-16T07:15:52;17.67;;;6.88;;
49237;SDS011;35069;47.906;1.892;2022-10-16T07:18:17;13.00;;;6.43;;
49237;SDS011;35069;47.906;1.892;2022-10-16T07:20:43;14.07;;;6.88;;
49237;SDS011;35069;47.906;1.892;2022-10-16T07:23:09;15.73;;;7.03;;
49237;SDS011;35069;47.906;1.892;2022-10-16T07:25:34;10.75;;;6.90;;
49237;SDS011;35069;47.906;1.892;2022-10-16T07:28:00;9.95;;;6.65;;
49237;SDS011;35069;47.906;1.892;2022-10-16T07:30:25;14.50;;;5.85;;
49237;SDS011;35069;47.906;1.892;2022-10-16T07:32:51;10.27;;;6.10;;
49237;SDS011;35069;47.906;1.892;2022-10-16T07:35:16;10.30;;;5.93;;
49237;SDS011;35069;47.906;1.892;2022-10-16T07:37:45;12.52;;;5.85;;
49237;SDS011;35069;47.906;1.892;2022-10-16T07:40:11;15.32;;;5.75;;
49237;SDS011;35069;47.906;1.892;2022-10-16T07:42:37;12.02;;;5.65;;
49237;SDS011;35069;47.906;1.892;2022-10-16T07:45:03;11.18;;;5.93;;
49237;SDS011;35069;47.906;1.892;2022-10-16T07:47:29;10.90;;;5.75;;
49237;SDS011;35069;47.906;1.892;2022-10-16T07:49:55;14.70;;;6.15;;
49237;SDS011;35069;47.906;1.892;2022-10-16T07:52:20;13.23;;;5.85;;
49237;SDS011;35069;47.906;1.892;2022-10-16T07:54:46;11.23;;;6.13;;
49237;SDS011;35069;47.906;1.892;2022-10-16T07:57:11;9.52;;;5.82;;
49237;SDS011;35069;47.906;1.892;2022-10-16T07:59:43;10.75;;;5.97;;
49237;SDS011;35069;47.906;1.892;2022-10-16T08:02:09;12.95;;;6.07;;
49237;SDS011;35069;47.906;1.892;2022-10-16T08:04:35;7.35;;;5.82;;
49237;SDS011;35069;47.906;1.892;2022-10-16T08:07:00;9.77;;;5.55;;
49237;SDS011;35069;47.906;1.892;2022-10-16T08:09:26;10.25;;;5.70;;
49237;SDS011;35069;47.906;1.892;2022-10-16T08:11:52;10.00;;;5.88;;
49237;SDS011;35069;47.906;1.892;2022-10-16T08:14:17;6.63;;;5.40;;
49237;SDS011;35069;47.906;1.892;2022-10-16T08:16:43;13.85;;;6.03;;
49237;SDS011;35069;47.906;1.892;2022-10-16T08:19:08;12.80;;;6.00;;
49237;SDS011;35069;47.906;1.892;2022-10-16T08:21:34;9.68;;;6.38;;
49237;SDS011;35069;47.906;1.892;2022-10-16T08:24:00;11.57;;;6.05;;
49237;SDS011;35069;47.906;1.892;2022-10-16T08:26:27;9.02;;;6.03;;
49237;SDS011;35069;47.906;1.892;2022-10-16T08:28:53;9.18;;;6.18;;
49237;SDS011;35069;47.906;1.892;2022-10-16T08:31:20;9.07;;;6.90;;
49237;SDS011;35069;47.906;1.892;2022-10-16T08:33:46;8.98;;;6.45;;
49237;SDS011;35069;47.906;1.892;2022-10-16T08:36:12;6.82;;;5.03;;
49237;SDS011;35069;47.906;1.892;2022-10-16T08:38:38;6.63;;;5.22;;
49237;SDS011;35069;47.906;1.892;2022-10-16T08:49:42;8.57;;;4.30;;
49237;SDS011;35069;47.906;1.892;2022-10-16T08:52:20;10.35;;;4.47;;
49237;SDS011;35069;47.906;1.892;2022-10-16T08:54:46;6.57;;;4.95;;
49237;SDS011;35069;47.906;1.892;2022-10-16T08:57:17;5.45;;;4.95;;
49237;SDS011;35069;47.906;1.892;2022-10-16T08:59:45;11.32;;;4.95;;
49237;SDS011;35069;47.906;1.892;2022-10-16T09:07:32;10.52;;;5.60;;
49237;SDS011;35069;47.906;1.892;2022-10-16T09:10:32;8.25;;;4.22;;
49237;SDS011;35069;47.906;1.892;2022-10-16T09:13:11;5.32;;;4.00;;
49237;SDS011;35069;47.906;1.892;2022-10-16T09:16:19;7.20;;;4.43;;
49237;SDS011;35069;47.906;1.892;2022-10-16T09:21:45;4.97;;;3.20;;
49237;SDS011;35069;47.906;1.892;2022-10-16T09:26:40;4.60;;;3.75;;
49237;SDS011;35069;47.906;1.892;2022-10-16T09:29:06;5.63;;;3.63;;
49237;SDS011;35069;47.906;1.892;2022-10-16T09:31:35;7.65;;;3.85;;
49237;SDS011;35069;47.906;1.892;2022-10-16T09:34:04;6.10;;;3.40;;
49237;SDS011;35069;47.906;1.892;2022-10-16T09:36:35;5.30;;;2.85;;
49237;SDS011;35069;47.906;1.892;2022-10-16T09:39:08;5.55;;;3.35;;
49237;SDS011;35069;47.906;1.892;2022-10-16T09:41:35;7.43;;;2.97;;
49237;SDS011;35069;47.906;1.892;2022-10-16T09:44:04;5.32;;;2.70;;
49237;SDS011;35069;47.906;1.892;2022-10-16T09:46:44;7.68;;;3.08;;
49237;SDS011;35069;47.906;1.892;2022-10-16T09:49:21;6.60;;;3.22;;
49237;SDS011;35069;47.906;1.892;2022-10-16T09:51:51;5.22;;;2.50;;
49237;SDS011;35069;47.906;1.892;2022-10-16T09:54:39;6.60;;;2.30;;
49237;SDS011;35069;47.906;1.892;2022-10-16T09:57:20;5.43;;;2.38;;
49237;SDS011;35069;47.906;1.892;2022-10-16T09:59:47;6.10;;;3.10;;
49237;SDS011;35069;47.906;1.892;2022-10-16T10:02:15;7.13;;;2.72;;
49237;SDS011;35069;47.906;1.892;2022-10-16T10:04:52;4.18;;;2.67;;
49237;SDS011;35069;47.906;1.892;2022-10-16T10:07:26;5.47;;;2.42;;
49237;SDS011;35069;47.906;1.892;2022-10-16T10:09:59;4.63;;;2.33;;
49237;SDS011;35069;47.906;1.892;2022-10-16T10:12:30;3.92;;;2.60;;
49237;SDS011;35069;47.906;1.892;2022-10-16T10:15:04;4.45;;;3.05;;
49237;SDS011;35069;47.906;1.892;2022-10-16T10:17:44;3.00;;;2.70;;
49237;SDS011;35069;47.906;1.892;2022-10-16T10:22:50;4.57;;;2.78;;
49237;SDS011;35069;47.906;1.892;2022-10-16T10:25:21;3.20;;;2.45;;
49237;SDS011;35069;47.906;1.892;2022-10-16T10:30:55;3.00;;;2.58;;
49237;SDS011;35069;47.906;1.892;2022-10-16T10:33:34;3.53;;;2.20;;
49237;SDS011;35069;47.906;1.892;2022-10-16T10:36:12;3.30;;;2.10;;
49237;SDS011;35069;47.906;1.892;2022-10-16T10:39:15;3.08;;;2.15;;
49237;SDS011;35069;47.906;1.892;2022-10-16T10:55:33;2.25;;;1.85;;
49237;SDS011;35069;47.906;1.892;2022-10-16T10:58:15;5.40;;;2.20;;
49237;SDS011;35069;47.906;1.892;2022-10-16T11:01:08;4.32;;;2.65;;
49237;SDS011;35069;47.906;1.892;2022-10-16T11:03:54;4.93;;;2.58;;
49237;SDS011;35069;47.906;1.892;2022-10-16T11:09:08;6.35;;;2.30;;
49237;SDS011;35069;47.906;1.892;2022-10-16T11:11:45;3.63;;;1.73;;
49237;SDS011;35069;47.906;1.892;2022-10-16T11:14:32;2.22;;;1.88;;
49237;SDS011;35069;47.906;1.892;2022-10-16T11:22:30;2.45;;;2.22;;
49237;SDS011;35069;47.906;1.892;2022-10-16T11:25:27;7.20;;;1.65;;
49237;SDS011;35069;47.906;1.892;2022-10-16T11:28:06;1.75;;;1.48;;
49237;SDS011;35069;47.906;1.892;2022-10-16T11:31:22;4.85;;;1.70;;
49237;SDS011;35069;47.906;1.892;2022-10-16T11:33:45;2.47;;;1.67;;
49237;SDS011;35069;47.906;1.892;2022-10-16T11:41:35;5.78;;;1.83;;
49237;SDS011;35069;47.906;1.892;2022-10-16T11:49:37;1.05;;;1.05;;
49237;SDS011;35069;47.906;1.892;2022-10-16T11:55:22;1.67;;;1.20;;
49237;SDS011;35069;47.906;1.892;2022-10-16T11:57:44;1.02;;;1.00;;
49237;SDS011;35069;47.906;1.892;2022-10-16T12:00:41;3.33;;;1.05;;
49237;SDS011;35069;47.906;1.892;2022-10-16T12:03:19;2.17;;;1.33;;
49237;SDS011;35069;47.906;1.892;2022-10-16T12:08:39;3.55;;;1.27;;
49237;SDS011;35069;47.906;1.892;2022-10-16T12:11:06;3.08;;;1.20;;
49237;SDS011;35069;47.906;1.892;2022-10-16T12:13:38;3.63;;;1.52;;
49237;SDS011;35069;47.906;1.892;2022-10-16T12:18:37;3.30;;;1.17;;
49237;SDS011;35069;47.906;1.892;2022-10-16T12:21:03;1.50;;;1.17;;
49237;SDS011;35069;47.906;1.892;2022-10-16T12:23:31;2.63;;;1.13;;
49237;SDS011;35069;47.906;1.892;2022-10-16T12:26:02;1.00;;;1.00;;
49237;SDS011;35069;47.906;1.892;2022-10-16T12:28:32;1.52;;;1.20;;
49237;SDS011;35069;47.906;1.892;2022-10-16T12:30:59;1.42;;;1.17;;
49237;SDS011;35069;47.906;1.892;2022-10-16T12:33:29;3.53;;;1.40;;
49237;SDS011;35069;47.906;1.892;2022-10-16T12:35:57;1.98;;;1.20;;
49237;SDS011;35069;47.906;1.892;2022-10-16T12:41:23;2.50;;;1.50;;
49237;SDS011;35069;47.906;1.892;2022-10-16T12:43:56;1.48;;;1.38;;
49237;SDS011;35069;47.906;1.892;2022-10-16T12:48:48;2.53;;;1.40;;
49237;SDS011;35069;47.906;1.892;2022-10-16T12:56:49;2.20;;;1.80;;
49237;SDS011;35069;47.906;1.892;2022-10-16T12:59:29;8.52;;;2.30;;
49237;SDS011;35069;47.906;1.892;2022-10-16T13:02:29;3.83;;;1.92;;
49237;SDS011;35069;47.906;1.892;2022-10-16T13:10:39;5.80;;;2.22;;
49237;SDS011;35069;47.906;1.892;2022-10-16T13:13:29;2.60;;;2.00;;
49237;SDS011;35069;47.906;1.892;2022-10-16T13:26:53;2.78;;;2.58;;
49237;SDS011;35069;47.906;1.892;2022-10-16T13:29:32;4.60;;;2.45;;
49237;SDS011;35069;47.906;1.892;2022-10-16T13:32:00;7.32;;;2.20;;
49237;SDS011;35069;47.906;1.892;2022-10-16T13:34:26;4.47;;;1.85;;
49237;SDS011;35069;47.906;1.892;2022-10-16T13:36:53;2.53;;;2.33;;
49237;SDS011;35069;47.906;1.892;2022-10-16T13:39:26;2.42;;;2.13;;
49237;SDS011;35069;47.906;1.892;2022-10-16T13:44:58;3.70;;;2.17;;
49237;SDS011;35069;47.906;1.892;2022-10-16T13:47:25;4.43;;;2.38;;
49237;SDS011;35069;47.906;1.892;2022-10-16T13:50:25;2.80;;;2.40;;
49237;SDS011;35069;47.906;1.892;2022-10-16T13:52:44;3.13;;;2.78;;
49237;SDS011;35069;47.906;1.892;2022-10-16T13:55:11;4.45;;;2.53;;
49237;SDS011;35069;47.906;1.892;2022-10-16T13:57:37;7.40;;;2.67;;
49237;SDS011;35069;47.906;1.892;2022-10-16T14:00:02;3.40;;;2.60;;
49237;SDS011;35069;47.906;1.892;2022-10-16T14:02:41;2.92;;;2.00;;
49237;SDS011;35069;47.906;1.892;2022-10-16T14:05:08;3.00;;;2.13;;
49237;SDS011;35069;47.906;1.892;2022-10-16T14:07:35;2.30;;;2.10;;
49237;SDS011;35069;47.906;1.892;2022-10-16T14:10:06;3.40;;;2.30;;
49237;SDS011;35069;47.906;1.892;2022-10-16T14:12:45;2.45;;;2.33;;
49237;SDS011;35069;47.906;1.892;2022-10-16T14:15:23;3.90;;;2.40;;
49237;SDS011;35069;47.906;1.892;2022-10-16T14:17:49;2.03;;;1.80;;
49237;SDS011;35069;47.906;1.892;2022-10-16T14:20:25;5.13;;;1.92;;
49237;SDS011;35069;47.906;1.892;2022-10-16T14:23:00;4.43;;;2.10;;
49237;SDS011;35069;47.906;1.892;2022-10-16T14:25:29;5.07;;;3.00;;
49237;SDS011;35069;47.906;1.892;2022-10-16T14:28:42;4.72;;;3.50;;
49237;SDS011;35069;47.906;1.892;2022-10-16T14:30:50;4.78;;;2.45;;
49237;SDS011;35069;47.906;1.892;2022-10-16T14:33:22;4.10;;;2.50;;
49237;SDS011;35069;47.906;1.892;2022-10-16T14:36:00;2.97;;;2.28;;
49237;SDS011;35069;47.906;1.892;2022-10-16T14:38:35;3.30;;;2.78;;
49237;SDS011;35069;47.906;1.892;2022-10-16T14:41:03;5.00;;;2.78;;
49237;SDS011;35069;47.906;1.892;2022-10-16T14:43:39;2.17;;;1.92;;
49237;SDS011;35069;47.906;1.892;2022-10-16T14:46:09;2.70;;;2.40;;
49237;SDS011;35069;47.906;1.892;2022-10-16T14:48:39;3.35;;;2.35;;
49237;SDS011;35069;47.906;1.892;2022-10-16T14:51:13;4.63;;;2.30;;
49237;SDS011;35069;47.906;1.892;2022-10-16T14:53:39;2.15;;;2.00;;
49237;SDS011;35069;47.906;1.892;2022-10-16T14:56:06;2.83;;;1.70;;
49237;SDS011;35069;47.906;1.892;2022-10-16T14:58:33;5.80;;;2.15;;
49237;SDS011;35069;47.906;1.892;2022-10-16T15:00:59;2.42;;;2.03;;
49237;SDS011;35069;47.906;1.892;2022-10-16T15:03:25;2.05;;;1.95;;
49237;SDS011;35069;47.906;1.892;2022-10-16T15:05:50;5.47;;;2.42;;
49237;SDS011;35069;47.906;1.892;2022-10-16T15:08:16;2.58;;;2.38;;
49237;SDS011;35069;47.906;1.892;2022-10-16T15:10:42;3.75;;;2.00;;
49237;SDS011;35069;47.906;1.892;2022-10-16T15:13:12;2.33;;;2.03;;
49237;SDS011;35069;47.906;1.892;2022-10-16T15:15:42;3.88;;;2.30;;
49237;SDS011;35069;47.906;1.892;2022-10-16T15:18:12;3.25;;;1.73;;
49237;SDS011;35069;47.906;1.892;2022-10-16T15:20:40;3.13;;;1.90;;
49237;SDS011;35069;47.906;1.892;2022-10-16T15:23:10;2.38;;;1.80;;
49237;SDS011;35069;47.906;1.892;2022-10-16T15:25:43;1.85;;;1.75;;
49237;SDS011;35069;47.906;1.892;2022-10-16T15:28:11;2.22;;;1.90;;
49237;SDS011;35069;47.906;1.892;2022-10-16T15:30:38;1.92;;;1.80;;
49237;SDS011;35069;47.906;1.892;2022-10-16T15:33:05;3.17;;;2.00;;
49237;SDS011;35069;47.906;1.892;2022-10-16T15:35:46;4.72;;;2.20;;
49237;SDS011;35069;47.906;1.892;2022-10-16T15:38:13;6.38;;;2.50;;
49237;SDS011;35069;47.906;1.892;2022-10-16T15:40:40;1.80;;;1.70;;
49237;SDS011;35069;47.906;1.892;2022-10-16T15:43:06;3.15;;;2.72;;
49237;SDS011;35069;47.906;1.892;2022-10-16T15:45:32;2.03;;;1.90;;
49237;SDS011;35069;47.906;1.892;2022-10-16T15:47:57;2.35;;;2.15;;
49237;SDS011;35069;47.906;1.892;2022-10-16T15:50:23;2.13;;;2.03;;
49237;SDS011;35069;47.906;1.892;2022-10-16T15:52:49;2.42;;;2.10;;
49237;SDS011;35069;47.906;1.892;2022-10-16T15:55:15;4.95;;;1.75;;
49237;SDS011;35069;47.906;1.892;2022-10-16T15:57:43;2.25;;;1.65;;
49237;SDS011;35069;47.906;1.892;2022-10-16T16:00:13;7.78;;;2.28;;
49237;SDS011;35069;47.906;1.892;2022-10-16T16:02:41;3.10;;;1.85;;
49237;SDS011;35069;47.906;1.892;2022-10-16T16:05:08;3.08;;;2.17;;
49237;SDS011;35069;47.906;1.892;2022-10-16T16:07:35;3.83;;;2.03;;
49237;SDS011;35069;47.906;1.892;2022-10-16T16:10:02;2.97;;;1.80;;
49237;SDS011;35069;47.906;1.892;2022-10-16T16:12:30;2.13;;;1.95;;
49237;SDS011;35069;47.906;1.892;2022-10-16T16:14:56;2.72;;;2.10;;
49237;SDS011;35069;47.906;1.892;2022-10-16T16:17:22;4.90;;;3.35;;
49237;SDS011;35069;47.906;1.892;2022-10-16T16:19:49;3.53;;;1.80;;
49237;SDS011;35069;47.906;1.892;2022-10-16T16:22:15;9.90;;;2.45;;
49237;SDS011;35069;47.906;1.892;2022-10-16T16:24:40;5.57;;;2.30;;
49237;SDS011;35069;47.906;1.892;2022-10-16T16:27:06;2.65;;;2.28;;
49237;SDS011;35069;47.906;1.892;2022-10-16T16:29:32;3.35;;;2.40;;
49237;SDS011;35069;47.906;1.892;2022-10-16T16:31:58;2.40;;;2.20;;
49237;SDS011;35069;47.906;1.892;2022-10-16T16:34:25;2.30;;;1.95;;
49237;SDS011;35069;47.906;1.892;2022-10-16T16:36:54;4.20;;;2.58;;
49237;SDS011;35069;47.906;1.892;2022-10-16T16:39:20;2.30;;;2.20;;
49237;SDS011;35069;47.906;1.892;2022-10-16T16:41:54;2.63;;;2.33;;
49237;SDS011;35069;47.906;1.892;2022-10-16T16:44:21;5.57;;;2.42;;
49237;SDS011;35069;47.906;1.892;2022-10-16T16:46:47;2.53;;;2.33;;
49237;SDS011;35069;47.906;1.892;2022-10-16T16:49:13;3.25;;;2.47;;
49237;SDS011;35069;47.906;1.892;2022-10-16T16:51:40;3.58;;;2.60;;
49237;SDS011;35069;47.906;1.892;2022-10-16T16:54:06;6.47;;;3.72;;
49237;SDS011;35069;47.906;1.892;2022-10-16T16:56:32;3.38;;;2.58;;
49237;SDS011;35069;47.906;1.892;2022-10-16T16:58:58;2.35;;;2.17;;
49237;SDS011;35069;47.906;1.892;2022-10-16T17:01:25;5.30;;;3.03;;
49237;SDS011;35069;47.906;1.892;2022-10-16T17:03:52;5.30;;;2.15;;
49237;SDS011;35069;47.906;1.892;2022-10-16T17:06:20;9.02;;;2.45;;
49237;SDS011;35069;47.906;1.892;2022-10-16T17:08:48;4.13;;;2.78;;
49237;SDS011;35069;47.906;1.892;2022-10-16T17:11:16;5.80;;;2.72;;
49237;SDS011;35069;47.906;1.892;2022-10-16T17:13:46;4.83;;;2.67;;
49237;SDS011;35069;47.906;1.892;2022-10-16T17:16:13;6.72;;;2.70;;
49237;SDS011;35069;47.906;1.892;2022-10-16T17:18:39;6.72;;;3.13;;
49237;SDS011;35069;47.906;1.892;2022-10-16T17:21:06;4.03;;;2.40;;
49237;SDS011;35069;47.906;1.892;2022-10-16T17:23:34;3.58;;;2.72;;
49237;SDS011;35069;47.906;1.892;2022-10-16T17:26:07;2.90;;;2.63;;
49237;SDS011;35069;47.906;1.892;2022-10-16T17:28:38;6.93;;;2.83;;
49237;SDS011;35069;47.906;1.892;2022-10-16T17:31:07;6.30;;;2.85;;
49237;SDS011;35069;47.906;1.892;2022-10-16T17:33:38;4.15;;;2.83;;
49237;SDS011;35069;47.906;1.892;2022-10-16T17:36:04;4.10;;;3.00;;
49237;SDS011;35069;47.906;1.892;2022-10-16T17:38:30;4.97;;;3.58;;
49237;SDS011;35069;47.906;1.892;2022-10-16T17:40:56;4.03;;;3.20;;
49237;SDS011;35069;47.906;1.892;2022-10-16T17:43:22;5.50;;;3.42;;
49237;SDS011;35069;47.906;1.892;2022-10-16T17:45:47;3.22;;;2.85;;
49237;SDS011;35069;47.906;1.892;2022-10-16T17:48:13;5.90;;;3.25;;
49237;SDS011;35069;47.906;1.892;2022-10-16T17:50:39;5.82;;;2.78;;
49237;SDS011;35069;47.906;1.892;2022-10-16T17:53:05;3.58;;;2.92;;
49237;SDS011;35069;47.906;1.892;2022-10-16T17:55:31;6.75;;;3.10;;
49237;SDS011;35069;47.906;1.892;2022-10-16T17:58:05;3.85;;;3.55;;
49237;SDS011;35069;47.906;1.892;2022-10-16T18:00:31;6.57;;;3.40;;
49237;SDS011;35069;47.906;1.892;2022-10-16T18:02:57;3.58;;;3.15;;
49237;SDS011;35069;47.906;1.892;2022-10-16T18:05:23;5.03;;;2.67;;
49237;SDS011;35069;47.906;1.892;2022-10-16T18:07:49;3.80;;;3.30;;
49237;SDS011;35069;47.906;1.892;2022-10-16T18:10:14;5.40;;;2.90;;
49237;SDS011;35069;47.906;1.892;2022-10-16T18:12:40;31.80;;;3.70;;
49237;SDS011;35069;47.906;1.892;2022-10-16T18:15:06;3.60;;;3.17;;
49237;SDS011;35069;47.906;1.892;2022-10-16T18:17:33;5.38;;;3.15;;
49237;SDS011;35069;47.906;1.892;2022-10-16T18:20:02;3.40;;;3.13;;
49237;SDS011;35069;47.906;1.892;2022-10-16T18:22:28;4.03;;;2.78;;
49237;SDS011;35069;47.906;1.892;2022-10-16T18:24:55;4.05;;;2.67;;
49237;SDS011;35069;47.906;1.892;2022-10-16T18:27:22;5.47;;;3.42;;
49237;SDS011;35069;47.906;1.892;2022-10-16T18:29:48;5.50;;;3.47;;
49237;SDS011;35069;47.906;1.892;2022-10-16T18:32:13;6.38;;;4.15;;
49237;SDS011;35069;47.906;1.892;2022-10-16T18:34:39;4.40;;;3.58;;
49237;SDS011;35069;47.906;1.892;2022-10-16T18:37:04;4.72;;;3.28;;
49237;SDS011;35069;47.906;1.892;2022-10-16T18:39:30;3.58;;;3.28;;
49237;SDS011;35069;47.906;1.892;2022-10-16T18:41:56;3.42;;;3.13;;
49237;SDS011;35069;47.906;1.892;2022-10-16T18:44:24;4.32;;;3.30;;
49237;SDS011;35069;47.906;1.892;2022-10-16T18:46:50;4.93;;;3.45;;
49237;SDS011;35069;47.906;1.892;2022-10-16T18:49:20;3.10;;;2.80;;
49237;SDS011;35069;47.906;1.892;2022-10-16T18:51:47;7.55;;;4.50;;
49237;SDS011;35069;47.906;1.892;2022-10-16T18:54:15;4.93;;;2.88;;
49237;SDS011;35069;47.906;1.892;2022-10-16T18:56:41;4.40;;;3.42;;
49237;SDS011;35069;47.906;1.892;2022-10-16T18:59:06;5.20;;;3.38;;
49237;SDS011;35069;47.906;1.892;2022-10-16T19:01:34;4.07;;;3.67;;
49237;SDS011;35069;47.906;1.892;2022-10-16T19:04:06;10.40;;;3.90;;
49237;SDS011;35069;47.906;1.892;2022-10-16T19:06:34;4.93;;;3.63;;
49237;SDS011;35069;47.906;1.892;2022-10-16T19:09:01;7.05;;;3.70;;
49237;SDS011;35069;47.906;1.892;2022-10-16T19:11:27;4.63;;;3.50;;
49237;SDS011;35069;47.906;1.892;2022-10-16T19:13:55;3.50;;;3.20;;
49237;SDS011;35069;47.906;1.892;2022-10-16T19:16:28;6.43;;;3.92;;
49237;SDS011;35069;47.906;1.892;2022-10-16T19:18:55;5.32;;;3.80;;
49237;SDS011;35069;47.906;1.892;2022-10-16T19:21:23;7.70;;;3.60;;
49237;SDS011;35069;47.906;1.892;2022-10-16T19:23:51;6.57;;;3.58;;
49237;SDS011;35069;47.906;1.892;2022-10-16T19:26:17;9.32;;;3.53;;
49237;SDS011;35069;47.906;1.892;2022-10-16T19:28:43;10.95;;;4.43;;
49237;SDS011;35069;47.906;1.892;2022-10-16T19:31:19;4.97;;;3.45;;
49237;SDS011;35069;47.906;1.892;2022-10-16T19:33:46;5.78;;;4.57;;
49237;SDS011;35069;47.906;1.892;2022-10-16T19:36:16;4.85;;;3.65;;
49237;SDS011;35069;47.906;1.892;2022-10-16T19:38:43;5.63;;;4.00;;
49237;SDS011;35069;47.906;1.892;2022-10-16T19:41:11;4.55;;;3.60;;
49237;SDS011;35069;47.906;1.892;2022-10-16T19:43:39;5.95;;;3.92;;
49237;SDS011;35069;47.906;1.892;2022-10-16T19:46:08;4.78;;;4.20;;
49237;SDS011;35069;47.906;1.892;2022-10-16T19:48:36;4.40;;;4.00;;
49237;SDS011;35069;47.906;1.892;2022-10-16T19:51:02;4.90;;;4.40;;
49237;SDS011;35069;47.906;1.892;2022-10-16T19:53:29;6.93;;;4.47;;
49237;SDS011;35069;47.906;1.892;2022-10-16T19:55:55;6.85;;;4.30;;
49237;SDS011;35069;47.906;1.892;2022-10-16T19:58:22;8.35;;;4.20;;
49237;SDS011;35069;47.906;1.892;2022-10-16T20:00:48;8.38;;;4.80;;
49237;SDS011;35069;47.906;1.892;2022-10-16T20:03:14;9.35;;;4.45;;
49237;SDS011;35069;47.906;1.892;2022-10-16T20:05:48;8.02;;;4.82;;
49237;SDS011;35069;47.906;1.892;2022-10-16T20:08:14;12.30;;;4.45;;
49237;SDS011;35069;47.906;1.892;2022-10-16T20:10:46;8.73;;;4.55;;
49237;SDS011;35069;47.906;1.892;2022-10-16T20:13:13;4.50;;;3.25;;
49237;SDS011;35069;47.906;1.892;2022-10-16T20:15:39;4.93;;;3.35;;
49237;SDS011;35069;47.906;1.892;2022-10-16T20:18:04;7.10;;;4.07;;
49237;SDS011;35069;47.906;1.892;2022-10-16T20:20:30;5.25;;;3.55;;
49237;SDS011;35069;47.906;1.892;2022-10-16T20:22:55;3.75;;;3.05;;
49237;SDS011;35069;47.906;1.892;2022-10-16T20:25:21;4.80;;;3.08;;
49237;SDS011;35069;47.906;1.892;2022-10-16T20:27:47;4.20;;;3.65;;
49237;SDS011;35069;47.906;1.892;2022-10-16T20:30:12;6.50;;;3.47;;
49237;SDS011;35069;47.906;1.892;2022-10-16T20:32:38;5.32;;;3.90;;
49237;SDS011;35069;47.906;1.892;2022-10-16T20:35:05;4.90;;;3.58;;
49237;SDS011;35069;47.906;1.892;2022-10-16T20:37:31;6.20;;;3.35;;
49237;SDS011;35069;47.906;1.892;2022-10-16T20:39:57;5.05;;;3.53;;
49237;SDS011;35069;47.906;1.892;2022-10-16T20:42:22;4.00;;;3.53;;
49237;SDS011;35069;47.906;1.892;2022-10-16T20:44:48;6.78;;;3.38;;
49237;SDS011;35069;47.906;1.892;2022-10-16T20:47:13;9.93;;;4.30;;
49237;SDS011;35069;47.906;1.892;2022-10-16T20:49:39;3.28;;;2.40;;
49237;SDS011;35069;47.906;1.892;2022-10-16T20:52:05;5.65;;;3.25;;
49237;SDS011;35069;47.906;1.892;2022-10-16T20:54:30;7.03;;;3.35;;
49237;SDS011;35069;47.906;1.892;2022-10-16T20:56:56;4.53;;;3.30;;
49237;SDS011;35069;47.906;1.892;2022-10-16T20:59:21;9.88;;;4.10;;
49237;SDS011;35069;47.906;1.892;2022-10-16T21:01:47;8.15;;;2.80;;
49237;SDS011;35069;47.906;1.892;2022-10-16T21:04:13;3.90;;;3.13;;
49237;SDS011;35069;47.906;1.892;2022-10-16T21:06:39;4.72;;;3.05;;
49237;SDS011;35069;47.906;1.892;2022-10-16T21:09:05;7.53;;;2.95;;
49237;SDS011;35069;47.906;1.892;2022-10-16T21:11:31;3.22;;;2.75;;
49237;SDS011;35069;47.906;1.892;2022-10-16T21:14:00;4.72;;;2.85;;
49237;SDS011;35069;47.906;1.892;2022-10-16T21:16:27;4.30;;;3.22;;
49237;SDS011;35069;47.906;1.892;2022-10-16T21:18:53;8.07;;;2.85;;
49237;SDS011;35069;47.906;1.892;2022-10-16T21:21:19;6.63;;;3.22;;
49237;SDS011;35069;47.906;1.892;2022-10-16T21:23:47;7.75;;;3.05;;
49237;SDS011;35069;47.906;1.892;2022-10-16T21:26:14;3.42;;;2.55;;
49237;SDS011;35069;47.906;1.892;2022-10-16T21:28:40;8.02;;;3.17;;
49237;SDS011;35069;47.906;1.892;2022-10-16T21:31:16;3.67;;;2.65;;
49237;SDS011;35069;47.906;1.892;2022-10-16T21:33:43;3.45;;;3.15;;
49237;SDS011;35069;47.906;1.892;2022-10-16T21:36:13;5.10;;;2.85;;
49237;SDS011;35069;47.906;1.892;2022-10-16T21:38:42;4.53;;;2.65;;
49237;SDS011;35069;47.906;1.892;2022-10-16T21:41:11;5.40;;;3.10;;
49237;SDS011;35069;47.906;1.892;2022-10-16T21:43:47;3.35;;;3.10;;
49237;SDS011;35069;47.906;1.892;2022-10-16T21:46:16;7.82;;;4.22;;
49237;SDS011;35069;47.906;1.892;2022-10-16T21:48:45;5.30;;;2.88;;
49237;SDS011;35069;47.906;1.892;2022-10-16T21:51:11;6.40;;;3.17;;
49237;SDS011;35069;47.906;1.892;2022-10-16T21:53:37;5.18;;;3.40;;
49237;SDS011;35069;47.906;1.892;2022-10-16T21:56:04;5.45;;;2.70;;
49237;SDS011;35069;47.906;1.892;2022-10-16T21:58:36;4.70;;;2.95;;
